Flight Track Log - Related Links

Times and Time Zones

All times are in EDT time to prevent confusion due to time zone crossing. See the UAL316 flight status page for this flight to view local times or setup timezone preferences in your user account.

Time Position Orientation Groundspeed Altitude Reporting Facility
EDT Latitude Longitude Course Direction KTS MPH feet Rate Location/Type
Thu 07:50:32 PM 39.8138 -104.4932 264° West  Level FlightAware Approximate
Thu 07:50:37 PM 39.8000 -104.6500 109° East 167 192 7,100  Level Denver TRACON
Thu 07:55:13 PM 39.7042 -104.2817 67° East 371 427 17,700 2,268 Climbing Denver Center
Thu 07:56:13 PM 39.7358 -104.1861 67° East 338 389 19,800 1,550 Climbing Denver Center
Thu 07:57:13 PM 39.7750 -104.0686 66° East 334 384 20,800 1,300 Climbing Denver Center
Thu 07:58:13 PM 39.8200 -103.9344 67° East 373 429 22,400 1,750 Climbing Denver Center
Thu 07:59:13 PM 39.8650 -103.7950 77° East 408 470 24,300 2,100 Climbing Denver Center
Thu 08:00:13 PM 39.8906 -103.6506 85° East 408 470 26,600 1,800 Climbing Denver Center
Thu 08:01:13 PM 39.9014 -103.5011 84° East 414 476 27,900 1,250 Climbing Denver Center
Thu 08:02:13 PM 39.9139 -103.3436 84° East 431 496 29,100 1,250 Climbing Denver Center
Thu 08:03:13 PM 39.9278 -103.1667 86° East 437 503 30,400 1,350 Climbing Denver Center
Thu 08:04:13 PM 39.9356 -103.0011 83° East 448 516 31,800 1,400 Climbing Denver Center
Thu 08:05:13 PM 39.9511 -102.8325 87° East 458 527 33,200 1,350 Climbing Denver Center
Thu 08:06:13 PM 39.9583 -102.6667 86° East 465 535 34,500 900 Climbing Denver Center
Thu 08:07:13 PM 39.9672 -102.5008 84° East 465 535 35,000 250 Climbing Denver Center
Thu 08:08:13 PM 39.9803 -102.3347 86° East 465 535 35,000  Level Denver Center
Thu 08:09:13 PM 39.9892 -102.1853 86° East 460 529 35,000 200 Level Denver Center
Thu 08:10:13 PM 39.9989 -102.0000 86° East 461 531 35,400 800 Climbing Denver Center
Thu 08:11:13 PM 40.0089 -101.8314 85° East 466 536 36,600 800 Climbing Denver Center
Thu 08:12:13 PM 40.0189 -101.6653 86° East 461 531 37,000 200 Climbing Denver Center
Thu 08:13:13 PM 40.0267 -101.5072 85° East 474 545 37,000  Level Denver Center
Thu 08:14:13 PM 40.0392 -101.3164 85° East 481 554 37,000  Level Denver Center
Thu 08:15:13 PM 40.0500 -101.1444 87° East 481 554 37,000  Level Denver Center
Thu 08:16:13 PM 40.0572 -100.9867 87° East 481 554 37,000  Level Denver Center
Thu 08:17:13 PM 40.0633 -100.8097 86° East 481 554 37,000 250 Level Denver Center
Thu 08:18:13 PM 40.0744 -100.6186 87° East 487 560 37,500 700 Climbing Denver Center
Thu 08:19:13 PM 40.0822 -100.4442 85° East 487 560 38,400 750 Climbing Denver Center
Thu 08:20:13 PM 40.0928 -100.2883 87° East 482 555 39,000 300 Climbing Denver Center
Thu 08:21:13 PM 40.1011 -100.1000 87° East 482 555 39,000  Level Denver Center
Thu 08:22:13 PM 40.1081 -99.9256 88° East 477 549 39,000  Level Denver Center
Thu 08:24:31 PM 40.1178 -99.5378 87° East 470 541 39,000  Level Minneapolis Center
Thu 08:25:30 PM 40.1250 -99.3703 87° East 465 535 39,000  Level Minneapolis Center
Thu 08:26:31 PM 40.1317 -99.2058 88° East 459 528 39,000  Level Minneapolis Center
Thu 08:27:30 PM 40.1364 -99.0408 87° East 459 528 39,000  Level Minneapolis Center
Thu 08:28:31 PM 40.1425 -98.8758 87° East 459 528 39,000  Level Minneapolis Center
Thu 08:29:31 PM 40.1486 -98.7111 87° East 459 528 39,000  Level Minneapolis Center
Thu 08:30:30 PM 40.1544 -98.5461 87° East 459 528 39,000  Level Minneapolis Center
Thu 08:31:31 PM 40.1600 -98.3839 89° East 459 528 39,000  Level Minneapolis Center
Thu 08:32:31 PM 40.1628 -98.2269 88° East 454 522 39,000  Level Minneapolis Center
Thu 08:33:31 PM 40.1678 -98.0647 88° East 449 517 39,000  Level Minneapolis Center
Thu 08:34:31 PM 40.1725 -97.8994 88° East 449 517 39,000  Level Minneapolis Center
Thu 08:35:31 PM 40.1769 -97.7372 89° East 449 517 39,000  Level Minneapolis Center
Thu 08:36:31 PM 40.1792 -97.5775 87° East 443 510 39,000  Level Minneapolis Center
Thu 08:37:31 PM 40.1853 -97.4125 89° East 443 510 39,000  Level Minneapolis Center
Thu 08:39:23 PM 40.1906 -97.1078 89° East 444 511 39,000  Level Kansas City Center
Thu 08:40:23 PM 40.1917 -96.9475 89° East 444 511 39,000  Level Kansas City Center
Thu 08:41:23 PM 40.1947 -96.7875 88° East 444 511 39,000  Level Kansas City Center
Thu 08:42:23 PM 40.1981 -96.6192 90° East 444 511 39,000  Level Kansas City Center
Thu 08:43:23 PM 40.1986 -96.4561 89° East 444 511 39,000  Level Kansas City Center
Thu 08:44:23 PM 40.2008 -96.3094 90° East 444 511 39,000  Level Kansas City Center
Thu 08:45:23 PM 40.2014 -96.1303 90° East 444 511 39,000  Level Kansas City Center
Thu 08:46:23 PM 40.2014 -95.9728 90° East 439 505 39,000  Level Kansas City Center
Thu 08:47:23 PM 40.2008 -95.8233 91° East 445 512 39,000  Level Kansas City Center
Thu 08:48:23 PM 40.1983 -95.6631 90° East 438 504 39,000  Level Kansas City Center
Thu 08:49:23 PM 40.1978 -95.4892 91° East 438 504 39,000  Level Kansas City Center
Thu 08:50:23 PM 40.1950 -95.3261 90° East 438 504 39,000  Level Kansas City Center
Thu 08:51:23 PM 40.1958 -95.1794 93° East 443 510 39,000  Level Kansas City Center
Thu 08:52:23 PM 40.1903 -95.0219 91° East 438 504 39,000  Level Kansas City Center
Thu 08:53:23 PM 40.1889 -94.8428 91° East 438 504 39,000  Level Kansas City Center
Thu 08:54:23 PM 40.1872 -94.6825 91° East 446 513 39,000  Level Kansas City Center
Thu 08:55:23 PM 40.1853 -94.5194 93° East 446 513 39,000  Level Kansas City Center
Thu 08:56:23 PM 40.1789 -94.3703 91° East 440 506 39,000  Level Kansas City Center
Thu 08:57:23 PM 40.1764 -94.1964 90° East 440 506 39,000  Level Kansas City Center
Thu 08:58:23 PM 40.1761 -94.0553 92° East 440 506 39,000  Level Kansas City Center
Thu 08:59:23 PM 40.1711 -93.8897 92° East 440 506 39,000  Level Kansas City Center
Thu 09:00:23 PM 40.1661 -93.7267 91° East 440 506 39,000  Level Kansas City Center
Thu 09:01:23 PM 40.1628 -93.5611 93° East 440 506 39,000  Level Kansas City Center
Thu 09:02:23 PM 40.1572 -93.3983 93° East 440 506 39,000  Level Kansas City Center
Thu 09:03:23 PM 40.1514 -93.2331 91° East 440 506 39,000  Level Kansas City Center
Thu 09:04:23 PM 40.1494 -93.0728 92° East 445 512 39,000  Level Kansas City Center
Thu 09:05:23 PM 40.1431 -92.8858 92° East 451 519 39,000  Level Kansas City Center
Thu 09:06:23 PM 40.1386 -92.7256 93° East 451 519 39,000  Level Kansas City Center
Thu 09:07:23 PM 40.1319 -92.5603 98° East 451 519 39,000  Level Kansas City Center
Thu 09:08:23 PM 40.1169 -92.4142 96° East 451 519 39,000  Level Kansas City Center
Thu 09:09:23 PM 40.1011 -92.2331 97° East 451 519 39,000  Level Kansas City Center
Thu 09:10:23 PM 40.0856 -92.0708 96° East 451 519 39,000  Level Kansas City Center
Thu 09:11:23 PM 40.0717 -91.9086 97° East 451 519 39,000  Level Kansas City Center
Thu 09:12:23 PM 40.0556 -91.7464 97° East 451 519 39,000  Level Kansas City Center
Thu 09:13:23 PM 40.0392 -91.5817 98° East 451 519 39,000  Level Kansas City Center
Thu 09:14:23 PM 40.0225 -91.4200 96° East 451 519 39,000  Level Kansas City Center
Thu 09:15:23 PM 40.0103 -91.2686 99° East 456 525 39,000  Level Kansas City Center
Thu 09:16:23 PM 39.9911 -91.1044 98° East 456 525 39,000  Level Kansas City Center
Thu 09:17:23 PM 39.9714 -90.9294 97° East 456 525 39,000  Level Kansas City Center
Thu 09:18:23 PM 39.9561 -90.7650 98° East 450 518 39,000  Level Kansas City Center
Thu 09:19:23 PM 39.9383 -90.6033 97° East 450 518 39,000  Level Kansas City Center
Thu 09:20:23 PM 39.9225 -90.4419 99° East 450 518 39,000  Level Kansas City Center
Thu 09:21:23 PM 39.9022 -90.2781 97° East 450 518 39,000  Level Kansas City Center
Thu 09:22:23 PM 39.8861 -90.1142 99° East 450 518 39,000  Level Kansas City Center
Thu 09:23:23 PM 39.8675 -89.9531 98° East 450 518 39,000  Level Kansas City Center
Thu 09:24:23 PM 39.8486 -89.7892 96° East 450 518 39,000  Level Kansas City Center
Thu 09:25:23 PM 39.8358 -89.6253 88° East 450 518 39,000  Level Kansas City Center
Thu 09:26:23 PM 39.8394 -89.4600 90° East 450 518 39,000  Level Kansas City Center
Thu 09:27:23 PM 39.8386 -89.2925 90° East 456 525 39,000  Level Kansas City Center
Thu 09:28:23 PM 39.8394 -89.1250 90° East 462 532 39,000  Level Kansas City Center
Thu 09:29:23 PM 39.8403 -88.9600 92° East 462 532 39,000  Level Kansas City Center
Thu 09:31:04 PM 39.8325 -88.7053 89° East 475 547 39,000  Level Indianapolis Center
Thu 09:32:04 PM 39.8342 -88.5214 89° East 460 529 39,000  Level Indianapolis Center
Thu 09:33:04 PM 39.8367 -88.3592 91° East 460 529 39,000  Level Indianapolis Center
Thu 09:34:04 PM 39.8350 -88.1914 91° East 460 529 39,000  Level Indianapolis Center
Thu 09:35:04 PM 39.8333 -88.0236 90° East 460 529 39,000  Level Indianapolis Center
Thu 09:36:04 PM 39.8333 -87.8558 90° East 465 535 39,000  Level Indianapolis Center
Thu 09:37:04 PM 39.8331 -87.6828 91° East 465 535 39,000  Level Indianapolis Center
Thu 09:38:04 PM 39.8306 -87.5150 90° East 465 535 39,000  Level Indianapolis Center
Thu 09:39:04 PM 39.8297 -87.3447 91° East 465 535 39,000  Level Indianapolis Center
Thu 09:40:04 PM 39.8267 -87.1797 91° East 457 526 39,000  Level Indianapolis Center
Thu 09:41:04 PM 39.8250 -87.0281 91° East 462 532 39,000  Level Indianapolis Center
Thu 09:42:04 PM 39.8233 -86.8631 92° East 462 532 39,000  Level Indianapolis Center
Thu 09:43:04 PM 39.8197 -86.6981 91° East 462 532 39,000  Level Indianapolis Center
Thu 09:44:04 PM 39.8175 -86.5358 86° East 455 524 39,000 -318 Level Indianapolis Center
Thu 09:45:16 PM 39.8256 -86.3847 74° East 455 524 38,300 -955 Descending Indianapolis Center
Thu 09:46:16 PM 39.8744 -86.1594 76° East 455 524 36,900 -1,200 Descending Indianapolis Center
Thu 09:47:16 PM 39.9028 -86.0061 75° East 448 516 35,900 -1,350 Descending Indianapolis Center
Thu 09:48:16 PM 39.9350 -85.8503 76° East 448 516 34,200 -1,950 Descending Indianapolis Center
Thu 09:49:16 PM 39.9650 -85.6942 75° East 448 516 32,000 -2,150 Descending Indianapolis Center
Thu 09:50:16 PM 39.9969 -85.5406 74° East 443 510 29,900 -1,500 Descending Indianapolis Center
Thu 09:51:16 PM 40.0283 -85.3925 85° East 431 496 29,000 -450 Descending Indianapolis Center
Thu 09:52:16 PM 40.0392 -85.2381 79° East 431 496 29,000  Level Indianapolis Center
Thu 09:53:16 PM 40.0619 -85.0867 77° East 426 490 29,000 -650 Level Indianapolis Center
Thu 09:54:16 PM 40.0844 -84.9597 79° East 416 479 27,700 -1,650 Descending Indianapolis Center
Thu 09:55:16 PM 40.1047 -84.8164 77° East 411 473 25,700 -1,950 Descending Indianapolis Center
Thu 09:56:16 PM 40.1292 -84.6783 77° East 398 458 23,800 -1,600 Descending Indianapolis Center
Thu 09:57:16 PM 40.1531 -84.5456 78° East 381 438 22,500 -1,250 Descending Indianapolis Center
Thu 09:58:16 PM 40.1728 -84.4208 77° East 367 422 21,300 -1,150 Descending Indianapolis Center
Thu 09:59:16 PM 40.1947 -84.2908 77° East 362 417 20,200 -1,100 Descending Indianapolis Center
Thu 10:00:16 PM 40.2161 -84.1686 78° East 349 402 19,100 -1,100 Descending Indianapolis Center
Thu 10:01:16 PM 40.2375 -84.0328 78° East 349 402 18,000 -1,050 Descending Indianapolis Center
Thu 10:02:16 PM 40.2567 -83.9106 78° East 344 396 17,000 -1,400 Descending Indianapolis Center
Thu 10:03:16 PM 40.2758 -83.7936 78° East 332 382 15,200 -1,650 Descending Indianapolis Center
Thu 10:04:16 PM 40.2947 -83.6767 77° East 327 376 13,700 -1,546 Descending Indianapolis Center
Thu 10:04:53 PM 40.3053 -83.6142 79° East 319 367 12,700 -1,565 Descending Indianapolis Center
Thu 10:05:48 PM 40.3197 -83.5133 83° East 311 358 11,300 -887 Descending Indianapolis Center
Thu 10:06:48 PM 40.3303 -83.4072 126° Southeast 305 351 11,000 -645 Descending Indianapolis Center
Thu 10:07:49 PM 40.2800 -83.3175 122° Southeast 304 350 10,000 -783 Descending Indianapolis Center
Thu 10:08:43 PM 40.2403 -83.2333 117° Southeast 284 327 9,500 -897 Descending Indianapolis Center
Thu 10:09:16 PM 40.2214 -83.1844 118° Southeast 304 350 8,700 -1,484 Descending Indianapolis Center
Thu 10:10:16 PM 40.1833 -83.0925 117° Southeast 296 341 7,200 -1,150 Descending Indianapolis Center
Thu 10:11:16 PM 40.1497 -83.0058 123° Southeast 278 320 6,400 -1,000 Descending Indianapolis Center
Thu 10:11:52 PM 40.1244 -82.9544 115° Southeast 256 295 5,600 -1,063 Descending Indianapolis Center
Thu 10:12:52 PM 40.0969 -82.8758 108° East 233 268 4,700 -900 Descending Indianapolis Center
Thu 10:13:52 PM 40.0797 -82.8056 130° Southeast 205 236 3,800 -694 Descending Indianapolis Center
Thu 10:14:53 PM 40.0483 -82.7569 186° South 171 197 3,300 -656 Descending Indianapolis Center
Thu 10:16:00 PM 40.0067 -82.7631 186° South 154 177 2,400 -806 Descending Indianapolis Center

Login

Don't have an account? Register now (free) for customized features, flight alerts, and more!